sensor_id;sensor_type;location;lat;lon;timestamp;P1;durP1;ratioP1;P2;durP2;ratioP2
14799;SDS011;7491;57.750;11.970;2022-10-31T00:00:13;93.90;;;35.70;;
14799;SDS011;7491;57.750;11.970;2022-10-31T00:02:40;88.38;;;34.58;;
14799;SDS011;7491;57.750;11.970;2022-10-31T00:05:07;95.18;;;35.80;;
14799;SDS011;7491;57.750;11.970;2022-10-31T00:07:36;86.63;;;33.40;;
14799;SDS011;7491;57.750;11.970;2022-10-31T00:10:06;81.03;;;33.47;;
14799;SDS011;7491;57.750;11.970;2022-10-31T00:12:34;82.03;;;31.80;;
14799;SDS011;7491;57.750;11.970;2022-10-31T00:15:00;78.53;;;32.45;;
14799;SDS011;7491;57.750;11.970;2022-10-31T00:17:27;78.22;;;31.20;;
14799;SDS011;7491;57.750;11.970;2022-10-31T00:19:53;81.30;;;30.85;;
14799;SDS011;7491;57.750;11.970;2022-10-31T00:22:21;74.38;;;31.58;;
14799;SDS011;7491;57.750;11.970;2022-10-31T00:24:49;75.40;;;31.75;;
14799;SDS011;7491;57.750;11.970;2022-10-31T00:27:16;71.50;;;30.17;;
14799;SDS011;7491;57.750;11.970;2022-10-31T00:29:43;81.05;;;31.83;;
14799;SDS011;7491;57.750;11.970;2022-10-31T00:32:09;71.82;;;29.95;;
14799;SDS011;7491;57.750;11.970;2022-10-31T00:34:36;89.18;;;31.02;;
14799;SDS011;7491;57.750;11.970;2022-10-31T00:37:02;65.00;;;27.65;;
14799;SDS011;7491;57.750;11.970;2022-10-31T00:39:29;100.70;;;30.50;;
14799;SDS011;7491;57.750;11.970;2022-10-31T00:41:57;96.47;;;29.48;;
14799;SDS011;7491;57.750;11.970;2022-10-31T00:44:24;59.42;;;23.83;;
14799;SDS011;7491;57.750;11.970;2022-10-31T00:46:51;81.07;;;25.77;;
14799;SDS011;7491;57.750;11.970;2022-10-31T00:49:18;69.22;;;28.00;;
14799;SDS011;7491;57.750;11.970;2022-10-31T00:51:44;76.95;;;29.38;;
14799;SDS011;7491;57.750;11.970;2022-10-31T00:54:11;70.10;;;28.85;;
14799;SDS011;7491;57.750;11.970;2022-10-31T00:56:38;70.57;;;26.67;;
14799;SDS011;7491;57.750;11.970;2022-10-31T00:59:07;68.75;;;27.60;;
14799;SDS011;7491;57.750;11.970;2022-10-31T01:01:34;76.78;;;28.35;;
14799;SDS011;7491;57.750;11.970;2022-10-31T01:04:00;61.30;;;27.33;;
14799;SDS011;7491;57.750;11.970;2022-10-31T01:06:27;66.50;;;25.48;;
14799;SDS011;7491;57.750;11.970;2022-10-31T01:08:54;62.33;;;27.23;;
14799;SDS011;7491;57.750;11.970;2022-10-31T01:11:21;83.60;;;28.52;;
14799;SDS011;7491;57.750;11.970;2022-10-31T01:13:50;71.40;;;25.98;;
14799;SDS011;7491;57.750;11.970;2022-10-31T01:16:19;67.15;;;25.17;;
14799;SDS011;7491;57.750;11.970;2022-10-31T01:18:47;83.30;;;26.98;;
14799;SDS011;7491;57.750;11.970;2022-10-31T01:21:15;61.20;;;25.00;;
14799;SDS011;7491;57.750;11.970;2022-10-31T01:23:43;55.05;;;25.65;;
14799;SDS011;7491;57.750;11.970;2022-10-31T01:26:11;89.60;;;26.33;;
14799;SDS011;7491;57.750;11.970;2022-10-31T01:28:42;67.50;;;25.80;;
14799;SDS011;7491;57.750;11.970;2022-10-31T01:31:11;64.47;;;25.55;;
14799;SDS011;7491;57.750;11.970;2022-10-31T01:33:39;78.70;;;26.52;;
14799;SDS011;7491;57.750;11.970;2022-10-31T01:36:12;60.90;;;24.63;;
14799;SDS011;7491;57.750;11.970;2022-10-31T01:38:42;100.53;;;26.98;;
14799;SDS011;7491;57.750;11.970;2022-10-31T01:41:08;61.85;;;22.27;;
14799;SDS011;7491;57.750;11.970;2022-10-31T01:43:43;75.75;;;23.77;;
14799;SDS011;7491;57.750;11.970;2022-10-31T01:46:11;54.55;;;23.90;;
14799;SDS011;7491;57.750;11.970;2022-10-31T01:48:41;67.80;;;24.75;;
14799;SDS011;7491;57.750;11.970;2022-10-31T01:51:08;65.30;;;22.67;;
14799;SDS011;7491;57.750;11.970;2022-10-31T01:53:37;70.15;;;24.52;;
14799;SDS011;7491;57.750;11.970;2022-10-31T01:56:08;67.63;;;24.08;;
14799;SDS011;7491;57.750;11.970;2022-10-31T01:58:35;69.95;;;24.27;;
14799;SDS011;7491;57.750;11.970;2022-10-31T02:01:02;76.63;;;25.50;;
14799;SDS011;7491;57.750;11.970;2022-10-31T02:03:29;93.38;;;28.67;;
14799;SDS011;7491;57.750;11.970;2022-10-31T02:05:58;93.00;;;29.13;;
14799;SDS011;7491;57.750;11.970;2022-10-31T02:08:26;84.07;;;26.60;;
14799;SDS011;7491;57.750;11.970;2022-10-31T02:10:54;62.17;;;24.77;;
14799;SDS011;7491;57.750;11.970;2022-10-31T02:13:22;74.38;;;27.50;;
14799;SDS011;7491;57.750;11.970;2022-10-31T02:15:51;77.47;;;28.23;;
14799;SDS011;7491;57.750;11.970;2022-10-31T02:18:19;96.85;;;27.73;;
14799;SDS011;7491;57.750;11.970;2022-10-31T02:20:48;84.22;;;31.13;;
14799;SDS011;7491;57.750;11.970;2022-10-31T02:23:33;94.68;;;34.55;;
14799;SDS011;7491;57.750;11.970;2022-10-31T02:29:16;96.07;;;33.13;;
14799;SDS011;7491;57.750;11.970;2022-10-31T02:32:12;87.88;;;33.13;;
14799;SDS011;7491;57.750;11.970;2022-10-31T02:34:48;88.40;;;32.58;;
14799;SDS011;7491;57.750;11.970;2022-10-31T02:37:23;76.35;;;31.08;;
14799;SDS011;7491;57.750;11.970;2022-10-31T02:39:54;90.40;;;33.97;;
14799;SDS011;7491;57.750;11.970;2022-10-31T02:42:29;97.90;;;33.20;;
14799;SDS011;7491;57.750;11.970;2022-10-31T02:45:05;87.10;;;31.08;;
14799;SDS011;7491;57.750;11.970;2022-10-31T02:47:40;86.03;;;31.80;;
14799;SDS011;7491;57.750;11.970;2022-10-31T02:50:11;91.43;;;31.40;;
14799;SDS011;7491;57.750;11.970;2022-10-31T02:52:43;84.25;;;30.85;;
14799;SDS011;7491;57.750;11.970;2022-10-31T02:55:10;76.57;;;30.25;;
14799;SDS011;7491;57.750;11.970;2022-10-31T02:57:39;93.72;;;32.45;;
14799;SDS011;7491;57.750;11.970;2022-10-31T03:00:08;85.68;;;29.55;;
14799;SDS011;7491;57.750;11.970;2022-10-31T03:05:29;78.30;;;31.17;;
14799;SDS011;7491;57.750;11.970;2022-10-31T03:08:06;104.90;;;33.88;;
14799;SDS011;7491;57.750;11.970;2022-10-31T03:10:40;98.03;;;32.35;;
14799;SDS011;7491;57.750;11.970;2022-10-31T03:13:12;85.20;;;31.83;;
14799;SDS011;7491;57.750;11.970;2022-10-31T03:15:55;84.35;;;32.40;;
14799;SDS011;7491;57.750;11.970;2022-10-31T03:18:31;103.90;;;32.83;;
14799;SDS011;7491;57.750;11.970;2022-10-31T03:21:01;88.10;;;29.42;;
14799;SDS011;7491;57.750;11.970;2022-10-31T03:23:33;98.25;;;31.95;;
14799;SDS011;7491;57.750;11.970;2022-10-31T03:26:02;73.07;;;27.13;;
14799;SDS011;7491;57.750;11.970;2022-10-31T03:28:33;73.05;;;28.45;;
14799;SDS011;7491;57.750;11.970;2022-10-31T03:31:02;87.38;;;27.20;;
14799;SDS011;7491;57.750;11.970;2022-10-31T03:33:34;87.80;;;29.75;;
14799;SDS011;7491;57.750;11.970;2022-10-31T03:36:04;92.72;;;31.90;;
14799;SDS011;7491;57.750;11.970;2022-10-31T03:38:35;103.07;;;33.75;;
14799;SDS011;7491;57.750;11.970;2022-10-31T03:41:03;101.78;;;34.75;;
14799;SDS011;7491;57.750;11.970;2022-10-31T03:43:36;103.10;;;33.25;;
14799;SDS011;7491;57.750;11.970;2022-10-31T03:46:06;93.47;;;32.50;;
14799;SDS011;7491;57.750;11.970;2022-10-31T03:48:34;86.50;;;30.90;;
14799;SDS011;7491;57.750;11.970;2022-10-31T03:51:04;84.72;;;30.65;;
14799;SDS011;7491;57.750;11.970;2022-10-31T03:53:36;80.75;;;30.92;;
14799;SDS011;7491;57.750;11.970;2022-10-31T03:56:09;76.60;;;30.38;;
14799;SDS011;7491;57.750;11.970;2022-10-31T03:58:43;87.68;;;31.98;;
14799;SDS011;7491;57.750;11.970;2022-10-31T04:01:15;91.40;;;31.63;;
14799;SDS011;7491;57.750;11.970;2022-10-31T04:03:46;85.53;;;31.13;;
14799;SDS011;7491;57.750;11.970;2022-10-31T04:06:14;95.25;;;31.80;;
14799;SDS011;7491;57.750;11.970;2022-10-31T04:08:44;81.53;;;30.42;;
14799;SDS011;7491;57.750;11.970;2022-10-31T04:11:15;68.22;;;27.70;;
14799;SDS011;7491;57.750;11.970;2022-10-31T04:13:44;88.80;;;30.38;;
14799;SDS011;7491;57.750;11.970;2022-10-31T04:16:13;75.18;;;29.90;;
14799;SDS011;7491;57.750;11.970;2022-10-31T04:18:41;87.18;;;29.67;;
14799;SDS011;7491;57.750;11.970;2022-10-31T04:21:10;79.78;;;28.90;;
14799;SDS011;7491;57.750;11.970;2022-10-31T04:23:36;71.15;;;27.85;;
14799;SDS011;7491;57.750;11.970;2022-10-31T04:26:03;78.43;;;28.65;;
14799;SDS011;7491;57.750;11.970;2022-10-31T04:28:30;77.30;;;32.92;;
14799;SDS011;7491;57.750;11.970;2022-10-31T04:30:58;67.50;;;28.25;;
14799;SDS011;7491;57.750;11.970;2022-10-31T04:33:25;77.00;;;28.35;;
14799;SDS011;7491;57.750;11.970;2022-10-31T04:35:52;65.32;;;26.98;;
14799;SDS011;7491;57.750;11.970;2022-10-31T04:38:20;98.07;;;28.90;;
14799;SDS011;7491;57.750;11.970;2022-10-31T04:40:46;79.38;;;28.85;;
14799;SDS011;7491;57.750;11.970;2022-10-31T04:43:13;80.80;;;28.15;;
14799;SDS011;7491;57.750;11.970;2022-10-31T04:45:40;76.75;;;27.52;;
14799;SDS011;7491;57.750;11.970;2022-10-31T04:48:06;86.68;;;28.00;;
14799;SDS011;7491;57.750;11.970;2022-10-31T04:50:33;64.97;;;28.58;;
14799;SDS011;7491;57.750;11.970;2022-10-31T04:52:59;71.93;;;26.88;;
14799;SDS011;7491;57.750;11.970;2022-10-31T04:55:27;65.70;;;26.42;;
14799;SDS011;7491;57.750;11.970;2022-10-31T04:57:54;60.22;;;25.25;;
14799;SDS011;7491;57.750;11.970;2022-10-31T05:00:21;72.32;;;28.13;;
14799;SDS011;7491;57.750;11.970;2022-10-31T05:02:48;75.18;;;26.48;;
14799;SDS011;7491;57.750;11.970;2022-10-31T05:05:17;76.65;;;29.25;;
14799;SDS011;7491;57.750;11.970;2022-10-31T05:07:45;79.90;;;29.58;;
14799;SDS011;7491;57.750;11.970;2022-10-31T05:10:13;69.72;;;28.13;;
14799;SDS011;7491;57.750;11.970;2022-10-31T05:12:46;73.32;;;26.95;;
14799;SDS011;7491;57.750;11.970;2022-10-31T05:15:14;72.10;;;26.02;;
14799;SDS011;7491;57.750;11.970;2022-10-31T05:17:41;74.70;;;26.27;;
14799;SDS011;7491;57.750;11.970;2022-10-31T05:20:08;82.53;;;27.00;;
14799;SDS011;7491;57.750;11.970;2022-10-31T05:22:36;66.30;;;24.98;;
14799;SDS011;7491;57.750;11.970;2022-10-31T05:25:03;60.05;;;24.48;;
14799;SDS011;7491;57.750;11.970;2022-10-31T05:27:30;69.03;;;23.23;;
14799;SDS011;7491;57.750;11.970;2022-10-31T05:29:58;51.28;;;22.98;;
14799;SDS011;7491;57.750;11.970;2022-10-31T05:32:24;58.28;;;23.95;;
14799;SDS011;7491;57.750;11.970;2022-10-31T05:34:51;71.75;;;25.38;;
14799;SDS011;7491;57.750;11.970;2022-10-31T05:37:18;52.80;;;23.60;;
14799;SDS011;7491;57.750;11.970;2022-10-31T05:39:44;62.00;;;24.13;;
14799;SDS011;7491;57.750;11.970;2022-10-31T05:42:11;63.50;;;23.25;;
14799;SDS011;7491;57.750;11.970;2022-10-31T05:44:38;55.10;;;22.75;;
14799;SDS011;7491;57.750;11.970;2022-10-31T05:47:06;55.75;;;23.80;;
14799;SDS011;7491;57.750;11.970;2022-10-31T05:49:33;67.38;;;25.20;;
14799;SDS011;7491;57.750;11.970;2022-10-31T05:51:59;63.72;;;25.27;;
14799;SDS011;7491;57.750;11.970;2022-10-31T05:54:26;60.75;;;26.30;;
14799;SDS011;7491;57.750;11.970;2022-10-31T05:56:53;68.18;;;25.58;;
14799;SDS011;7491;57.750;11.970;2022-10-31T05:59:19;63.88;;;25.27;;
14799;SDS011;7491;57.750;11.970;2022-10-31T06:01:46;81.85;;;27.13;;
14799;SDS011;7491;57.750;11.970;2022-10-31T06:04:14;67.70;;;25.83;;
14799;SDS011;7491;57.750;11.970;2022-10-31T06:06:41;71.43;;;27.88;;
14799;SDS011;7491;57.750;11.970;2022-10-31T06:09:07;72.85;;;26.83;;
14799;SDS011;7491;57.750;11.970;2022-10-31T06:11:34;59.03;;;24.00;;
14799;SDS011;7491;57.750;11.970;2022-10-31T06:14:01;62.35;;;25.33;;
14799;SDS011;7491;57.750;11.970;2022-10-31T06:16:28;54.47;;;22.88;;
14799;SDS011;7491;57.750;11.970;2022-10-31T06:18:55;65.57;;;24.05;;
14799;SDS011;7491;57.750;11.970;2022-10-31T06:21:23;68.50;;;25.50;;
14799;SDS011;7491;57.750;11.970;2022-10-31T06:23:50;52.78;;;24.05;;
14799;SDS011;7491;57.750;11.970;2022-10-31T06:26:17;57.65;;;23.15;;
14799;SDS011;7491;57.750;11.970;2022-10-31T06:28:44;56.60;;;22.77;;
14799;SDS011;7491;57.750;11.970;2022-10-31T06:31:11;52.92;;;23.35;;
14799;SDS011;7491;57.750;11.970;2022-10-31T06:33:37;54.28;;;23.17;;
14799;SDS011;7491;57.750;11.970;2022-10-31T06:36:04;58.25;;;23.13;;
14799;SDS011;7491;57.750;11.970;2022-10-31T06:38:32;58.55;;;22.45;;
14799;SDS011;7491;57.750;11.970;2022-10-31T06:41:01;56.60;;;24.00;;
14799;SDS011;7491;57.750;11.970;2022-10-31T06:43:29;70.57;;;25.42;;
14799;SDS011;7491;57.750;11.970;2022-10-31T06:45:56;59.50;;;23.80;;
14799;SDS011;7491;57.750;11.970;2022-10-31T06:48:23;62.90;;;26.00;;
14799;SDS011;7491;57.750;11.970;2022-10-31T06:50:50;64.63;;;26.08;;
14799;SDS011;7491;57.750;11.970;2022-10-31T06:53:17;74.15;;;26.80;;
14799;SDS011;7491;57.750;11.970;2022-10-31T06:55:47;78.63;;;26.52;;
14799;SDS011;7491;57.750;11.970;2022-10-31T06:58:14;75.72;;;27.77;;
14799;SDS011;7491;57.750;11.970;2022-10-31T07:00:40;69.97;;;28.55;;
14799;SDS011;7491;57.750;11.970;2022-10-31T07:03:09;84.38;;;27.73;;
14799;SDS011;7491;57.750;11.970;2022-10-31T07:05:37;79.72;;;28.23;;
14799;SDS011;7491;57.750;11.970;2022-10-31T07:08:05;72.75;;;27.25;;
14799;SDS011;7491;57.750;11.970;2022-10-31T07:10:35;85.32;;;27.23;;
14799;SDS011;7491;57.750;11.970;2022-10-31T07:13:05;72.22;;;27.35;;
14799;SDS011;7491;57.750;11.970;2022-10-31T07:15:36;61.10;;;25.13;;
14799;SDS011;7491;57.750;11.970;2022-10-31T07:18:05;63.05;;;23.73;;
14799;SDS011;7491;57.750;11.970;2022-10-31T07:20:33;102.55;;;27.60;;
14799;SDS011;7491;57.750;11.970;2022-10-31T07:23:00;92.88;;;27.13;;
14799;SDS011;7491;57.750;11.970;2022-10-31T07:25:27;127.18;;;25.80;;
14799;SDS011;7491;57.750;11.970;2022-10-31T07:27:53;78.53;;;23.27;;
14799;SDS011;7491;57.750;11.970;2022-10-31T07:30:21;63.45;;;22.33;;
14799;SDS011;7491;57.750;11.970;2022-10-31T07:32:49;72.78;;;22.55;;
14799;SDS011;7491;57.750;11.970;2022-10-31T07:35:17;49.85;;;20.88;;
14799;SDS011;7491;57.750;11.970;2022-10-31T07:37:45;62.63;;;22.77;;
14799;SDS011;7491;57.750;11.970;2022-10-31T07:40:12;57.20;;;22.73;;
14799;SDS011;7491;57.750;11.970;2022-10-31T07:42:39;45.85;;;20.33;;
14799;SDS011;7491;57.750;11.970;2022-10-31T07:45:07;61.58;;;22.55;;
14799;SDS011;7491;57.750;11.970;2022-10-31T07:47:40;58.72;;;20.30;;
14799;SDS011;7491;57.750;11.970;2022-10-31T07:50:07;64.70;;;22.13;;
14799;SDS011;7491;57.750;11.970;2022-10-31T07:52:35;57.47;;;21.50;;
14799;SDS011;7491;57.750;11.970;2022-10-31T07:55:01;63.97;;;22.70;;
14799;SDS011;7491;57.750;11.970;2022-10-31T07:57:28;59.50;;;21.13;;
14799;SDS011;7491;57.750;11.970;2022-10-31T07:59:55;61.03;;;22.45;;
14799;SDS011;7491;57.750;11.970;2022-10-31T08:02:22;69.28;;;22.55;;
14799;SDS011;7491;57.750;11.970;2022-10-31T08:04:51;64.47;;;21.75;;
14799;SDS011;7491;57.750;11.970;2022-10-31T08:07:18;61.47;;;22.20;;
14799;SDS011;7491;57.750;11.970;2022-10-31T08:09:45;65.20;;;23.05;;
14799;SDS011;7491;57.750;11.970;2022-10-31T08:12:11;59.17;;;22.75;;
14799;SDS011;7491;57.750;11.970;2022-10-31T08:14:38;51.78;;;21.25;;
14799;SDS011;7491;57.750;11.970;2022-10-31T08:17:05;56.85;;;23.40;;
14799;SDS011;7491;57.750;11.970;2022-10-31T08:19:31;56.17;;;22.20;;
14799;SDS011;7491;57.750;11.970;2022-10-31T08:21:59;48.97;;;20.08;;
14799;SDS011;7491;57.750;11.970;2022-10-31T08:24:26;56.33;;;22.33;;
14799;SDS011;7491;57.750;11.970;2022-10-31T08:26:53;52.55;;;21.23;;
14799;SDS011;7491;57.750;11.970;2022-10-31T08:29:20;50.53;;;20.83;;
14799;SDS011;7491;57.750;11.970;2022-10-31T08:31:46;52.85;;;21.33;;
14799;SDS011;7491;57.750;11.970;2022-10-31T08:34:13;55.88;;;21.38;;
14799;SDS011;7491;57.750;11.970;2022-10-31T08:36:40;45.90;;;21.23;;
14799;SDS011;7491;57.750;11.970;2022-10-31T08:39:11;48.80;;;21.75;;
14799;SDS011;7491;57.750;11.970;2022-10-31T08:41:37;54.65;;;22.23;;
14799;SDS011;7491;57.750;11.970;2022-10-31T08:44:04;46.40;;;21.48;;
14799;SDS011;7491;57.750;11.970;2022-10-31T08:46:31;51.47;;;21.83;;
14799;SDS011;7491;57.750;11.970;2022-10-31T08:48:58;54.05;;;21.80;;
14799;SDS011;7491;57.750;11.970;2022-10-31T08:51:24;48.40;;;22.10;;
14799;SDS011;7491;57.750;11.970;2022-10-31T08:53:51;45.05;;;19.88;;
14799;SDS011;7491;57.750;11.970;2022-10-31T08:56:19;40.22;;;19.60;;
14799;SDS011;7491;57.750;11.970;2022-10-31T08:58:47;48.00;;;20.33;;
14799;SDS011;7491;57.750;11.970;2022-10-31T09:01:14;41.33;;;19.65;;
14799;SDS011;7491;57.750;11.970;2022-10-31T09:03:53;43.67;;;18.92;;
14799;SDS011;7491;57.750;11.970;2022-10-31T09:06:19;41.45;;;19.00;;
14799;SDS011;7491;57.750;11.970;2022-10-31T09:08:46;37.45;;;18.08;;
14799;SDS011;7491;57.750;11.970;2022-10-31T09:11:13;38.95;;;17.85;;
14799;SDS011;7491;57.750;11.970;2022-10-31T09:13:41;39.97;;;20.00;;
14799;SDS011;7491;57.750;11.970;2022-10-31T09:16:08;39.63;;;18.80;;
14799;SDS011;7491;57.750;11.970;2022-10-31T09:18:35;39.92;;;18.65;;
14799;SDS011;7491;57.750;11.970;2022-10-31T09:21:02;40.38;;;18.70;;
14799;SDS011;7491;57.750;11.970;2022-10-31T09:23:29;37.75;;;19.35;;
14799;SDS011;7491;57.750;11.970;2022-10-31T09:25:55;40.28;;;17.75;;
14799;SDS011;7491;57.750;11.970;2022-10-31T09:28:27;35.13;;;17.27;;
14799;SDS011;7491;57.750;11.970;2022-10-31T09:30:55;37.60;;;17.98;;
14799;SDS011;7491;57.750;11.970;2022-10-31T09:33:22;34.63;;;19.02;;
14799;SDS011;7491;57.750;11.970;2022-10-31T09:35:49;34.42;;;17.45;;
14799;SDS011;7491;57.750;11.970;2022-10-31T09:38:17;32.60;;;17.23;;
14799;SDS011;7491;57.750;11.970;2022-10-31T09:40:46;48.28;;;18.75;;
14799;SDS011;7491;57.750;11.970;2022-10-31T09:43:15;37.65;;;18.77;;
14799;SDS011;7491;57.750;11.970;2022-10-31T09:45:49;40.55;;;18.33;;
14799;SDS011;7491;57.750;11.970;2022-10-31T09:51:09;37.22;;;17.73;;
14799;SDS011;7491;57.750;11.970;2022-10-31T09:53:42;34.70;;;17.08;;
14799;SDS011;7491;57.750;11.970;2022-10-31T09:56:12;34.20;;;17.48;;
14799;SDS011;7491;57.750;11.970;2022-10-31T09:58:42;39.45;;;17.15;;
14799;SDS011;7491;57.750;11.970;2022-10-31T10:01:19;36.97;;;16.73;;
14799;SDS011;7491;57.750;11.970;2022-10-31T10:04:04;28.65;;;14.93;;
14799;SDS011;7491;57.750;11.970;2022-10-31T10:06:40;38.88;;;16.58;;
14799;SDS011;7491;57.750;11.970;2022-10-31T10:09:12;36.80;;;15.65;;
14799;SDS011;7491;57.750;11.970;2022-10-31T10:11:44;33.97;;;16.17;;
14799;SDS011;7491;57.750;11.970;2022-10-31T10:14:22;39.85;;;15.80;;
14799;SDS011;7491;57.750;11.970;2022-10-31T10:17:06;37.15;;;16.52;;
14799;SDS011;7491;57.750;11.970;2022-10-31T10:19:56;32.00;;;16.65;;
14799;SDS011;7491;57.750;11.970;2022-10-31T10:22:46;39.25;;;16.70;;
14799;SDS011;7491;57.750;11.970;2022-10-31T10:25:19;33.05;;;15.30;;
14799;SDS011;7491;57.750;11.970;2022-10-31T10:27:58;32.05;;;15.93;;
14799;SDS011;7491;57.750;11.970;2022-10-31T10:30:34;37.53;;;16.10;;
14799;SDS011;7491;57.750;11.970;2022-10-31T10:33:09;32.05;;;15.57;;
14799;SDS011;7491;57.750;11.970;2022-10-31T10:35:40;44.15;;;16.48;;
14799;SDS011;7491;57.750;11.970;2022-10-31T10:38:13;30.95;;;14.73;;
14799;SDS011;7491;57.750;11.970;2022-10-31T10:40:45;33.45;;;14.35;;
14799;SDS011;7491;57.750;11.970;2022-10-31T10:43:19;32.08;;;15.07;;
14799;SDS011;7491;57.750;11.970;2022-10-31T10:46:01;32.00;;;14.63;;
14799;SDS011;7491;57.750;11.970;2022-10-31T10:49:00;25.83;;;13.00;;
14799;SDS011;7491;57.750;11.970;2022-10-31T10:51:40;30.05;;;12.65;;
14799;SDS011;7491;57.750;11.970;2022-10-31T10:54:24;22.63;;;11.45;;
14799;SDS011;7491;57.750;11.970;2022-10-31T10:57:07;30.30;;;11.48;;
14799;SDS011;7491;57.750;11.970;2022-10-31T10:59:43;20.33;;;9.55;;
14799;SDS011;7491;57.750;11.970;2022-10-31T11:02:15;23.00;;;10.40;;
14799;SDS011;7491;57.750;11.970;2022-10-31T11:04:43;21.38;;;9.18;;
14799;SDS011;7491;57.750;11.970;2022-10-31T11:07:15;18.67;;;8.55;;
14799;SDS011;7491;57.750;11.970;2022-10-31T11:09:41;13.43;;;6.78;;
14799;SDS011;7491;57.750;11.970;2022-10-31T11:12:09;17.30;;;6.55;;
14799;SDS011;7491;57.750;11.970;2022-10-31T11:14:43;14.38;;;6.07;;
14799;SDS011;7491;57.750;11.970;2022-10-31T11:17:17;14.80;;;5.60;;
14799;SDS011;7491;57.750;11.970;2022-10-31T11:20:00;13.18;;;5.25;;
14799;SDS011;7491;57.750;11.970;2022-10-31T11:22:30;18.08;;;5.03;;
14799;SDS011;7491;57.750;11.970;2022-10-31T11:24:57;19.98;;;5.72;;
14799;SDS011;7491;57.750;11.970;2022-10-31T11:27:25;14.13;;;4.50;;
14799;SDS011;7491;57.750;11.970;2022-10-31T11:29:52;21.88;;;5.43;;
14799;SDS011;7491;57.750;11.970;2022-10-31T11:32:29;18.98;;;5.10;;
14799;SDS011;7491;57.750;11.970;2022-10-31T11:34:56;12.40;;;4.32;;
14799;SDS011;7491;57.750;11.970;2022-10-31T11:37:27;13.93;;;3.97;;
14799;SDS011;7491;57.750;11.970;2022-10-31T11:39:59;13.07;;;3.67;;
14799;SDS011;7491;57.750;11.970;2022-10-31T11:42:37;14.27;;;3.97;;
14799;SDS011;7491;57.750;11.970;2022-10-31T11:45:07;13.57;;;3.63;;
14799;SDS011;7491;57.750;11.970;2022-10-31T11:47:41;21.30;;;3.83;;
14799;SDS011;7491;57.750;11.970;2022-10-31T11:50:11;16.23;;;4.35;;
14799;SDS011;7491;57.750;11.970;2022-10-31T11:52:46;18.98;;;4.45;;
14799;SDS011;7491;57.750;11.970;2022-10-31T11:55:16;13.55;;;3.83;;
14799;SDS011;7491;57.750;11.970;2022-10-31T11:57:55;17.98;;;3.92;;
14799;SDS011;7491;57.750;11.970;2022-10-31T12:00:24;22.33;;;4.10;;
14799;SDS011;7491;57.750;11.970;2022-10-31T12:03:04;19.23;;;3.88;;
14799;SDS011;7491;57.750;11.970;2022-10-31T12:05:37;15.40;;;3.05;;
14799;SDS011;7491;57.750;11.970;2022-10-31T12:08:06;20.42;;;3.80;;
14799;SDS011;7491;57.750;11.970;2022-10-31T12:10:39;22.15;;;4.22;;
14799;SDS011;7491;57.750;11.970;2022-10-31T12:13:17;16.23;;;3.30;;
14799;SDS011;7491;57.750;11.970;2022-10-31T12:15:58;15.43;;;3.00;;
14799;SDS011;7491;57.750;11.970;2022-10-31T12:18:41;19.20;;;3.72;;
14799;SDS011;7491;57.750;11.970;2022-10-31T12:21:26;13.25;;;3.63;;
14799;SDS011;7491;57.750;11.970;2022-10-31T12:24:07;20.48;;;3.38;;
14799;SDS011;7491;57.750;11.970;2022-10-31T12:26:45;17.38;;;2.80;;
14799;SDS011;7491;57.750;11.970;2022-10-31T12:29:24;14.25;;;3.22;;
14799;SDS011;7491;57.750;11.970;2022-10-31T12:32:03;15.80;;;3.00;;
14799;SDS011;7491;57.750;11.970;2022-10-31T12:34:51;15.40;;;3.22;;
14799;SDS011;7491;57.750;11.970;2022-10-31T12:37:31;19.80;;;3.47;;
14799;SDS011;7491;57.750;11.970;2022-10-31T12:43:04;18.10;;;3.53;;
14799;SDS011;7491;57.750;11.970;2022-10-31T12:45:51;16.13;;;2.88;;
14799;SDS011;7491;57.750;11.970;2022-10-31T12:48:43;9.27;;;2.63;;
14799;SDS011;7491;57.750;11.970;2022-10-31T12:51:21;14.88;;;3.50;;
14799;SDS011;7491;57.750;11.970;2022-10-31T12:53:56;11.30;;;2.50;;
14799;SDS011;7491;57.750;11.970;2022-10-31T12:56:36;14.48;;;2.90;;
14799;SDS011;7491;57.750;11.970;2022-10-31T12:59:15;13.90;;;2.80;;
14799;SDS011;7491;57.750;11.970;2022-10-31T13:01:48;30.63;;;3.83;;
14799;SDS011;7491;57.750;11.970;2022-10-31T13:04:27;13.45;;;2.92;;
14799;SDS011;7491;57.750;11.970;2022-10-31T13:07:02;14.77;;;2.97;;
14799;SDS011;7491;57.750;11.970;2022-10-31T13:09:33;11.38;;;2.88;;
14799;SDS011;7491;57.750;11.970;2022-10-31T13:12:07;17.10;;;2.90;;
14799;SDS011;7491;57.750;11.970;2022-10-31T13:14:39;6.78;;;2.50;;
14799;SDS011;7491;57.750;11.970;2022-10-31T13:17:20;14.30;;;2.92;;
14799;SDS011;7491;57.750;11.970;2022-10-31T13:19:51;20.63;;;4.20;;
14799;SDS011;7491;57.750;11.970;2022-10-31T13:22:35;12.65;;;3.50;;
14799;SDS011;7491;57.750;11.970;2022-10-31T13:25:03;11.30;;;3.25;;
14799;SDS011;7491;57.750;11.970;2022-10-31T13:27:43;15.07;;;3.25;;
14799;SDS011;7491;57.750;11.970;2022-10-31T13:30:15;14.27;;;3.75;;
14799;SDS011;7491;57.750;11.970;2022-10-31T13:32:46;15.98;;;3.65;;
14799;SDS011;7491;57.750;11.970;2022-10-31T13:35:18;12.23;;;3.50;;
14799;SDS011;7491;57.750;11.970;2022-10-31T13:37:50;16.80;;;3.13;;
14799;SDS011;7491;57.750;11.970;2022-10-31T13:40:30;8.98;;;3.08;;
14799;SDS011;7491;57.750;11.970;2022-10-31T13:43:05;11.77;;;3.15;;
14799;SDS011;7491;57.750;11.970;2022-10-31T13:45:46;16.05;;;2.97;;
14799;SDS011;7491;57.750;11.970;2022-10-31T13:48:18;14.45;;;2.75;;
14799;SDS011;7491;57.750;11.970;2022-10-31T13:51:01;9.85;;;3.30;;
14799;SDS011;7491;57.750;11.970;2022-10-31T13:53:37;12.25;;;3.45;;
14799;SDS011;7491;57.750;11.970;2022-10-31T13:56:17;9.27;;;2.90;;
14799;SDS011;7491;57.750;11.970;2022-10-31T14:01:47;14.93;;;4.47;;
14799;SDS011;7491;57.750;11.970;2022-10-31T14:04:16;15.25;;;3.70;;
14799;SDS011;7491;57.750;11.970;2022-10-31T14:06:48;15.75;;;4.25;;
14799;SDS011;7491;57.750;11.970;2022-10-31T14:09:23;14.90;;;4.45;;
14799;SDS011;7491;57.750;11.970;2022-10-31T14:11:54;12.07;;;3.60;;
14799;SDS011;7491;57.750;11.970;2022-10-31T14:14:23;13.13;;;4.20;;
14799;SDS011;7491;57.750;11.970;2022-10-31T14:16:59;20.88;;;4.00;;
14799;SDS011;7491;57.750;11.970;2022-10-31T14:19:28;12.68;;;3.65;;
14799;SDS011;7491;57.750;11.970;2022-10-31T14:21:55;18.27;;;4.00;;
14799;SDS011;7491;57.750;11.970;2022-10-31T14:24:32;13.88;;;4.18;;
14799;SDS011;7491;57.750;11.970;2022-10-31T14:27:02;11.20;;;4.00;;
14799;SDS011;7491;57.750;11.970;2022-10-31T14:29:31;16.27;;;4.20;;
14799;SDS011;7491;57.750;11.970;2022-10-31T14:32:02;17.05;;;4.95;;
14799;SDS011;7491;57.750;11.970;2022-10-31T14:34:36;15.07;;;4.40;;
14799;SDS011;7491;57.750;11.970;2022-10-31T14:40:17;17.17;;;4.90;;
14799;SDS011;7491;57.750;11.970;2022-10-31T14:42:55;18.80;;;5.40;;
14799;SDS011;7491;57.750;11.970;2022-10-31T14:45:43;19.23;;;5.55;;
14799;SDS011;7491;57.750;11.970;2022-10-31T14:48:24;18.65;;;6.05;;
14799;SDS011;7491;57.750;11.970;2022-10-31T14:51:08;18.52;;;6.07;;
14799;SDS011;7491;57.750;11.970;2022-10-31T14:53:41;18.70;;;8.45;;
14799;SDS011;7491;57.750;11.970;2022-10-31T14:56:11;16.48;;;7.95;;
14799;SDS011;7491;57.750;11.970;2022-10-31T14:58:44;21.02;;;8.60;;
14799;SDS011;7491;57.750;11.970;2022-10-31T15:01:16;20.00;;;9.85;;